sensor_id;sensor_type;location;lat;lon;timestamp;temperature;humidity
18658;DHT22;9458;50.942;5.074;2023-06-14T00:02:22;21.50;77.00
18658;DHT22;9458;50.942;5.074;2023-06-14T00:04:49;21.50;76.90
18658;DHT22;9458;50.942;5.074;2023-06-14T00:07:17;21.50;77.00
18658;DHT22;9458;50.942;5.074;2023-06-14T00:09:45;21.50;76.90
18658;DHT22;9458;50.942;5.074;2023-06-14T00:12:12;21.30;77.50
18658;DHT22;9458;50.942;5.074;2023-06-14T00:14:40;21.20;78.30
18658;DHT22;9458;50.942;5.074;2023-06-14T00:17:07;21.20;78.60
18658;DHT22;9458;50.942;5.074;2023-06-14T00:19:34;21.20;77.80
18658;DHT22;9458;50.942;5.074;2023-06-14T00:22:02;21.20;78.10
18658;DHT22;9458;50.942;5.074;2023-06-14T00:24:28;21.20;78.40
18658;DHT22;9458;50.942;5.074;2023-06-14T00:26:55;21.10;77.80
18658;DHT22;9458;50.942;5.074;2023-06-14T00:29:22;21.20;78.00
18658;DHT22;9458;50.942;5.074;2023-06-14T00:31:50;21.20;77.80
18658;DHT22;9458;50.942;5.074;2023-06-14T00:34:17;21.10;77.50
18658;DHT22;9458;50.942;5.074;2023-06-14T00:36:44;21.10;77.50
18658;DHT22;9458;50.942;5.074;2023-06-14T00:39:11;21.10;77.40
18658;DHT22;9458;50.942;5.074;2023-06-14T00:44:05;21.00;78.20
18658;DHT22;9458;50.942;5.074;2023-06-14T00:46:32;20.90;79.60
18658;DHT22;9458;50.942;5.074;2023-06-14T00:49:03;20.90;79.80
18658;DHT22;9458;50.942;5.074;2023-06-14T00:51:30;20.80;79.40
18658;DHT22;9458;50.942;5.074;2023-06-14T00:53:57;20.80;79.60
18658;DHT22;9458;50.942;5.074;2023-06-14T00:56:23;20.70;79.20
18658;DHT22;9458;50.942;5.074;2023-06-14T00:58:50;20.70;79.40
18658;DHT22;9458;50.942;5.074;2023-06-14T01:01:18;20.70;79.00
18658;DHT22;9458;50.942;5.074;2023-06-14T01:03:45;20.70;79.10
18658;DHT22;9458;50.942;5.074;2023-06-14T01:06:15;20.70;80.20
18658;DHT22;9458;50.942;5.074;2023-06-14T01:08:56;20.60;80.90
18658;DHT22;9458;50.942;5.074;2023-06-14T01:11:24;20.50;80.90
18658;DHT22;9458;50.942;5.074;2023-06-14T01:13:53;20.50;80.90
18658;DHT22;9458;50.942;5.074;2023-06-14T01:16:22;20.40;81.70
18658;DHT22;9458;50.942;5.074;2023-06-14T01:18:49;20.30;82.00
18658;DHT22;9458;50.942;5.074;2023-06-14T01:21:23;20.30;82.00
18658;DHT22;9458;50.942;5.074;2023-06-14T01:23:52;20.30;81.30
18658;DHT22;9458;50.942;5.074;2023-06-14T01:26:20;20.30;80.60
18658;DHT22;9458;50.942;5.074;2023-06-14T01:28:47;20.30;80.80
18658;DHT22;9458;50.942;5.074;2023-06-14T01:31:16;20.20;80.50
18658;DHT22;9458;50.942;5.074;2023-06-14T01:33:44;20.20;81.30
18658;DHT22;9458;50.942;5.074;2023-06-14T01:36:11;20.10;82.20
18658;DHT22;9458;50.942;5.074;2023-06-14T01:38:39;20.00;82.70
18658;DHT22;9458;50.942;5.074;2023-06-14T01:41:08;20.00;82.40
18658;DHT22;9458;50.942;5.074;2023-06-14T01:43:35;20.00;81.80
18658;DHT22;9458;50.942;5.074;2023-06-14T01:46:02;20.00;81.90
18658;DHT22;9458;50.942;5.074;2023-06-14T01:48:29;20.00;81.80
18658;DHT22;9458;50.942;5.074;2023-06-14T01:50:56;20.00;81.40
18658;DHT22;9458;50.942;5.074;2023-06-14T01:53:23;20.00;82.00
18658;DHT22;9458;50.942;5.074;2023-06-14T01:55:49;20.00;81.80
18658;DHT22;9458;50.942;5.074;2023-06-14T01:58:20;20.00;82.20
18658;DHT22;9458;50.942;5.074;2023-06-14T02:00:49;19.90;82.90
18658;DHT22;9458;50.942;5.074;2023-06-14T02:03:16;19.90;83.00
18658;DHT22;9458;50.942;5.074;2023-06-14T02:05:44;19.90;83.20
18658;DHT22;9458;50.942;5.074;2023-06-14T02:08:11;19.80;83.20
18658;DHT22;9458;50.942;5.074;2023-06-14T02:10:38;19.70;83.20
18658;DHT22;9458;50.942;5.074;2023-06-14T02:13:05;19.70;83.60
18658;DHT22;9458;50.942;5.074;2023-06-14T02:15:33;19.60;84.30
18658;DHT22;9458;50.942;5.074;2023-06-14T02:18:01;19.50;84.90
18658;DHT22;9458;50.942;5.074;2023-06-14T02:20:28;19.40;84.90
18658;DHT22;9458;50.942;5.074;2023-06-14T02:22:55;19.40;85.00
18658;DHT22;9458;50.942;5.074;2023-06-14T02:25:22;19.40;85.30
18658;DHT22;9458;50.942;5.074;2023-06-14T02:27:49;19.40;85.20
18658;DHT22;9458;50.942;5.074;2023-06-14T02:30:16;19.40;85.40
18658;DHT22;9458;50.942;5.074;2023-06-14T02:32:44;19.30;85.80
18658;DHT22;9458;50.942;5.074;2023-06-14T02:35:11;19.30;86.30
18658;DHT22;9458;50.942;5.074;2023-06-14T02:37:38;19.20;86.40
18658;DHT22;9458;50.942;5.074;2023-06-14T02:40:05;19.20;85.90
18658;DHT22;9458;50.942;5.074;2023-06-14T02:42:34;19.20;86.10
18658;DHT22;9458;50.942;5.074;2023-06-14T02:45:01;19.20;85.50
18658;DHT22;9458;50.942;5.074;2023-06-14T02:47:29;19.20;86.10
18658;DHT22;9458;50.942;5.074;2023-06-14T02:49:57;19.20;85.70
18658;DHT22;9458;50.942;5.074;2023-06-14T02:52:24;19.20;85.70
18658;DHT22;9458;50.942;5.074;2023-06-14T02:54:51;19.20;85.70
18658;DHT22;9458;50.942;5.074;2023-06-14T02:57:19;19.10;86.30
18658;DHT22;9458;50.942;5.074;2023-06-14T02:59:46;19.10;85.80
18658;DHT22;9458;50.942;5.074;2023-06-14T03:02:13;19.10;86.20
18658;DHT22;9458;50.942;5.074;2023-06-14T03:04:40;19.00;86.40
18658;DHT22;9458;50.942;5.074;2023-06-14T03:07:11;19.00;86.20
18658;DHT22;9458;50.942;5.074;2023-06-14T03:09:38;19.10;86.10
18658;DHT22;9458;50.942;5.074;2023-06-14T03:12:06;19.00;86.20
18658;DHT22;9458;50.942;5.074;2023-06-14T03:14:33;19.00;86.20
18658;DHT22;9458;50.942;5.074;2023-06-14T03:17:00;18.90;86.20
18658;DHT22;9458;50.942;5.074;2023-06-14T03:19:27;18.90;86.70
18658;DHT22;9458;50.942;5.074;2023-06-14T03:21:53;18.90;86.50
18658;DHT22;9458;50.942;5.074;2023-06-14T03:24:23;18.80;86.50
18658;DHT22;9458;50.942;5.074;2023-06-14T03:26:52;18.90;86.50
18658;DHT22;9458;50.942;5.074;2023-06-14T03:29:19;18.90;86.60
18658;DHT22;9458;50.942;5.074;2023-06-14T03:31:56;18.90;86.60
18658;DHT22;9458;50.942;5.074;2023-06-14T03:34:23;18.80;86.50
18658;DHT22;9458;50.942;5.074;2023-06-14T03:36:50;18.90;86.70
18658;DHT22;9458;50.942;5.074;2023-06-14T03:39:17;18.80;86.70
18658;DHT22;9458;50.942;5.074;2023-06-14T03:41:45;18.70;86.50
18658;DHT22;9458;50.942;5.074;2023-06-14T03:44:13;18.70;86.80
18658;DHT22;9458;50.942;5.074;2023-06-14T03:46:41;18.70;86.80
18658;DHT22;9458;50.942;5.074;2023-06-14T03:49:08;18.80;86.80
18658;DHT22;9458;50.942;5.074;2023-06-14T03:51:35;18.90;86.30
18658;DHT22;9458;50.942;5.074;2023-06-14T03:54:02;19.30;85.90
18658;DHT22;9458;50.942;5.074;2023-06-14T03:56:29;19.60;85.30
18658;DHT22;9458;50.942;5.074;2023-06-14T03:58:57;19.90;84.70
18658;DHT22;9458;50.942;5.074;2023-06-14T04:01:24;20.20;83.60
18658;DHT22;9458;50.942;5.074;2023-06-14T04:03:55;20.40;83.20
18658;DHT22;9458;50.942;5.074;2023-06-14T04:06:22;20.60;82.40
18658;DHT22;9458;50.942;5.074;2023-06-14T04:08:50;20.90;82.00
18658;DHT22;9458;50.942;5.074;2023-06-14T04:11:17;21.10;80.90
18658;DHT22;9458;50.942;5.074;2023-06-14T04:13:45;21.40;80.50
18658;DHT22;9458;50.942;5.074;2023-06-14T04:16:14;21.70;80.80
18658;DHT22;9458;50.942;5.074;2023-06-14T04:18:41;22.00;80.50
18658;DHT22;9458;50.942;5.074;2023-06-14T04:21:08;22.10;79.60
18658;DHT22;9458;50.942;5.074;2023-06-14T04:23:35;22.50;78.30
18658;DHT22;9458;50.942;5.074;2023-06-14T04:26:03;22.90;77.90
18658;DHT22;9458;50.942;5.074;2023-06-14T04:28:30;23.20;76.90
18658;DHT22;9458;50.942;5.074;2023-06-14T04:30:57;23.30;76.40
18658;DHT22;9458;50.942;5.074;2023-06-14T04:33:28;23.30;76.50
18658;DHT22;9458;50.942;5.074;2023-06-14T04:35:55;23.70;75.90
18658;DHT22;9458;50.942;5.074;2023-06-14T04:38:22;24.00;75.00
18658;DHT22;9458;50.942;5.074;2023-06-14T04:40:51;24.00;75.20
18658;DHT22;9458;50.942;5.074;2023-06-14T04:43:18;24.20;74.50
18658;DHT22;9458;50.942;5.074;2023-06-14T04:45:51;24.70;74.30
18658;DHT22;9458;50.942;5.074;2023-06-14T04:48:20;25.00;73.90
18658;DHT22;9458;50.942;5.074;2023-06-14T04:50:48;25.20;72.80
18658;DHT22;9458;50.942;5.074;2023-06-14T04:53:18;25.50;73.00
18658;DHT22;9458;50.942;5.074;2023-06-14T04:55:46;25.90;71.90
18658;DHT22;9458;50.942;5.074;2023-06-14T04:58:13;26.30;70.90
18658;DHT22;9458;50.942;5.074;2023-06-14T05:00:40;26.60;70.10
18658;DHT22;9458;50.942;5.074;2023-06-14T05:03:08;26.80;71.00
18658;DHT22;9458;50.942;5.074;2023-06-14T05:05:39;27.20;69.30
18658;DHT22;9458;50.942;5.074;2023-06-14T05:08:07;27.60;69.10
18658;DHT22;9458;50.942;5.074;2023-06-14T05:10:34;27.70;68.70
18658;DHT22;9458;50.942;5.074;2023-06-14T05:13:01;28.20;68.50
18658;DHT22;9458;50.942;5.074;2023-06-14T05:15:28;28.40;67.40
18658;DHT22;9458;50.942;5.074;2023-06-14T05:17:55;28.60;67.80
18658;DHT22;9458;50.942;5.074;2023-06-14T05:20:22;29.00;66.10
18658;DHT22;9458;50.942;5.074;2023-06-14T05:22:50;29.20;66.60
18658;DHT22;9458;50.942;5.074;2023-06-14T05:25:19;29.50;66.10
18658;DHT22;9458;50.942;5.074;2023-06-14T05:27:47;29.80;65.30
18658;DHT22;9458;50.942;5.074;2023-06-14T05:30:14;30.00;65.10
18658;DHT22;9458;50.942;5.074;2023-06-14T05:32:41;30.30;64.50
18658;DHT22;9458;50.942;5.074;2023-06-14T05:35:09;30.50;63.20
18658;DHT22;9458;50.942;5.074;2023-06-14T05:37:35;30.70;63.50
18658;DHT22;9458;50.942;5.074;2023-06-14T05:40:03;31.10;62.50
18658;DHT22;9458;50.942;5.074;2023-06-14T05:42:32;31.20;63.10
18658;DHT22;9458;50.942;5.074;2023-06-14T05:44:59;31.30;61.80
18658;DHT22;9458;50.942;5.074;2023-06-14T05:47:26;31.40;62.60
18658;DHT22;9458;50.942;5.074;2023-06-14T05:49:53;31.70;62.00
18658;DHT22;9458;50.942;5.074;2023-06-14T05:52:21;31.80;62.40
18658;DHT22;9458;50.942;5.074;2023-06-14T05:54:48;32.20;60.50
18658;DHT22;9458;50.942;5.074;2023-06-14T05:57:15;32.40;61.30
18658;DHT22;9458;50.942;5.074;2023-06-14T05:59:43;32.60;61.60
18658;DHT22;9458;50.942;5.074;2023-06-14T06:02:10;32.90;60.00
18658;DHT22;9458;50.942;5.074;2023-06-14T06:04:37;33.00;59.70
18658;DHT22;9458;50.942;5.074;2023-06-14T06:07:04;33.40;60.50
18658;DHT22;9458;50.942;5.074;2023-06-14T06:09:31;33.70;59.50
18658;DHT22;9458;50.942;5.074;2023-06-14T06:11:58;33.80;59.40
18658;DHT22;9458;50.942;5.074;2023-06-14T06:14:25;34.10;59.30
18658;DHT22;9458;50.942;5.074;2023-06-14T06:16:54;34.20;60.10
18658;DHT22;9458;50.942;5.074;2023-06-14T06:19:21;34.70;59.00
18658;DHT22;9458;50.942;5.074;2023-06-14T06:21:48;34.90;57.80
18658;DHT22;9458;50.942;5.074;2023-06-14T06:24:15;34.80;58.70
18658;DHT22;9458;50.942;5.074;2023-06-14T06:26:42;34.20;58.60
18658;DHT22;9458;50.942;5.074;2023-06-14T06:29:09;34.40;59.50
18658;DHT22;9458;50.942;5.074;2023-06-14T06:31:36;35.20;57.70
18658;DHT22;9458;50.942;5.074;2023-06-14T06:34:05;34.90;58.00
18658;DHT22;9458;50.942;5.074;2023-06-14T06:36:32;35.00;56.90
18658;DHT22;9458;50.942;5.074;2023-06-14T06:38:59;35.10;57.50
18658;DHT22;9458;50.942;5.074;2023-06-14T06:41:26;35.40;55.80
18658;DHT22;9458;50.942;5.074;2023-06-14T06:43:53;35.60;56.40
18658;DHT22;9458;50.942;5.074;2023-06-14T06:46:20;35.30;56.20
18658;DHT22;9458;50.942;5.074;2023-06-14T06:48:47;35.60;55.30
18658;DHT22;9458;50.942;5.074;2023-06-14T06:51:15;36.00;55.40
18658;DHT22;9458;50.942;5.074;2023-06-14T06:53:42;35.90;54.70
18658;DHT22;9458;50.942;5.074;2023-06-14T06:56:10;35.90;54.60
18658;DHT22;9458;50.942;5.074;2023-06-14T06:58:37;36.10;55.00
18658;DHT22;9458;50.942;5.074;2023-06-14T07:01:04;36.10;54.30
18658;DHT22;9458;50.942;5.074;2023-06-14T07:03:30;35.50;56.00
18658;DHT22;9458;50.942;5.074;2023-06-14T07:05:57;35.90;55.40
18658;DHT22;9458;50.942;5.074;2023-06-14T07:08:26;35.70;55.40
18658;DHT22;9458;50.942;5.074;2023-06-14T07:10:53;35.90;56.70
18658;DHT22;9458;50.942;5.074;2023-06-14T07:13:20;36.10;55.80
18658;DHT22;9458;50.942;5.074;2023-06-14T07:15:47;35.80;56.60
18658;DHT22;9458;50.942;5.074;2023-06-14T07:18:15;36.50;56.70
18658;DHT22;9458;50.942;5.074;2023-06-14T07:20:42;36.90;56.50
18658;DHT22;9458;50.942;5.074;2023-06-14T07:23:09;36.70;56.30
18658;DHT22;9458;50.942;5.074;2023-06-14T07:25:38;37.00;56.10
18658;DHT22;9458;50.942;5.074;2023-06-14T07:28:05;37.20;55.60
18658;DHT22;9458;50.942;5.074;2023-06-14T07:30:32;36.70;54.20
18658;DHT22;9458;50.942;5.074;2023-06-14T07:32:59;36.10;54.50
18658;DHT22;9458;50.942;5.074;2023-06-14T07:35:26;35.70;56.20
18658;DHT22;9458;50.942;5.074;2023-06-14T07:37:53;36.10;55.10
18658;DHT22;9458;50.942;5.074;2023-06-14T07:40:20;36.40;54.70
18658;DHT22;9458;50.942;5.074;2023-06-14T07:42:48;36.40;54.70
18658;DHT22;9458;50.942;5.074;2023-06-14T07:45:16;35.80;55.30
18658;DHT22;9458;50.942;5.074;2023-06-14T07:47:42;36.10;55.20
18658;DHT22;9458;50.942;5.074;2023-06-14T07:50:09;36.10;55.20
18658;DHT22;9458;50.942;5.074;2023-06-14T07:52:38;35.90;55.50
18658;DHT22;9458;50.942;5.074;2023-06-14T07:55:05;36.10;56.20
18658;DHT22;9458;50.942;5.074;2023-06-14T07:57:32;36.10;54.90
18658;DHT22;9458;50.942;5.074;2023-06-14T08:00:01;35.80;56.40
18658;DHT22;9458;50.942;5.074;2023-06-14T08:02:31;35.90;54.90
18658;DHT22;9458;50.942;5.074;2023-06-14T08:04:58;36.10;54.70
18658;DHT22;9458;50.942;5.074;2023-06-14T08:07:25;35.50;55.40
18658;DHT22;9458;50.942;5.074;2023-06-14T08:09:52;35.40;55.80
18658;DHT22;9458;50.942;5.074;2023-06-14T08:12:19;34.80;56.20
18658;DHT22;9458;50.942;5.074;2023-06-14T08:14:45;34.50;56.60
18658;DHT22;9458;50.942;5.074;2023-06-14T08:17:14;34.70;56.40
18658;DHT22;9458;50.942;5.074;2023-06-14T08:19:41;33.60;57.90
18658;DHT22;9458;50.942;5.074;2023-06-14T08:22:08;33.90;56.90
18658;DHT22;9458;50.942;5.074;2023-06-14T08:24:37;33.40;57.90
18658;DHT22;9458;50.942;5.074;2023-06-14T08:27:05;33.30;59.40
18658;DHT22;9458;50.942;5.074;2023-06-14T08:29:31;32.80;57.30
18658;DHT22;9458;50.942;5.074;2023-06-14T08:31:58;32.40;58.60
18658;DHT22;9458;50.942;5.074;2023-06-14T08:34:27;32.20;59.20
18658;DHT22;9458;50.942;5.074;2023-06-14T08:36:54;31.60;59.00
18658;DHT22;9458;50.942;5.074;2023-06-14T08:39:21;32.00;59.20
18658;DHT22;9458;50.942;5.074;2023-06-14T08:41:48;31.50;59.60
18658;DHT22;9458;50.942;5.074;2023-06-14T08:44:15;31.80;59.80
18658;DHT22;9458;50.942;5.074;2023-06-14T08:46:42;31.20;61.20
18658;DHT22;9458;50.942;5.074;2023-06-14T08:49:10;31.20;60.10
18658;DHT22;9458;50.942;5.074;2023-06-14T08:51:39;30.90;61.40
18658;DHT22;9458;50.942;5.074;2023-06-14T08:54:07;30.20;62.70
18658;DHT22;9458;50.942;5.074;2023-06-14T08:56:34;30.70;60.40
18658;DHT22;9458;50.942;5.074;2023-06-14T08:59:06;30.90;62.00
18658;DHT22;9458;50.942;5.074;2023-06-14T09:01:35;30.50;59.00
18658;DHT22;9458;50.942;5.074;2023-06-14T09:04:02;30.40;59.60
18658;DHT22;9458;50.942;5.074;2023-06-14T09:06:30;30.60;58.90
18658;DHT22;9458;50.942;5.074;2023-06-14T09:08:59;30.60;60.90
18658;DHT22;9458;50.942;5.074;2023-06-14T09:11:30;30.80;60.00
18658;DHT22;9458;50.942;5.074;2023-06-14T09:13:56;30.50;59.90
18658;DHT22;9458;50.942;5.074;2023-06-14T09:16:24;30.20;61.30
18658;DHT22;9458;50.942;5.074;2023-06-14T09:18:51;30.20;60.00
18658;DHT22;9458;50.942;5.074;2023-06-14T09:21:20;30.50;60.40
18658;DHT22;9458;50.942;5.074;2023-06-14T09:23:47;30.30;60.80
18658;DHT22;9458;50.942;5.074;2023-06-14T09:26:16;30.10;62.40
18658;DHT22;9458;50.942;5.074;2023-06-14T09:28:45;30.20;61.90
18658;DHT22;9458;50.942;5.074;2023-06-14T09:31:12;29.50;60.50
18658;DHT22;9458;50.942;5.074;2023-06-14T09:33:41;29.60;60.90
18658;DHT22;9458;50.942;5.074;2023-06-14T09:36:10;29.60;60.20
18658;DHT22;9458;50.942;5.074;2023-06-14T09:38:37;29.20;60.50
18658;DHT22;9458;50.942;5.074;2023-06-14T09:41:06;29.30;60.70
18658;DHT22;9458;50.942;5.074;2023-06-14T09:43:34;29.40;58.30
18658;DHT22;9458;50.942;5.074;2023-06-14T09:46:03;29.10;59.40
18658;DHT22;9458;50.942;5.074;2023-06-14T09:48:31;29.30;59.30
18658;DHT22;9458;50.942;5.074;2023-06-14T09:50:58;29.10;59.60
18658;DHT22;9458;50.942;5.074;2023-06-14T09:53:25;29.30;59.60
18658;DHT22;9458;50.942;5.074;2023-06-14T09:55:54;29.20;58.60
18658;DHT22;9458;50.942;5.074;2023-06-14T09:58:21;29.10;59.10
18658;DHT22;9458;50.942;5.074;2023-06-14T10:00:52;28.90;60.00
18658;DHT22;9458;50.942;5.074;2023-06-14T10:03:24;28.60;59.00
18658;DHT22;9458;50.942;5.074;2023-06-14T10:05:52;28.50;59.00
18658;DHT22;9458;50.942;5.074;2023-06-14T10:08:19;28.70;59.20
18658;DHT22;9458;50.942;5.074;2023-06-14T10:10:49;28.40;58.80
18658;DHT22;9458;50.942;5.074;2023-06-14T10:13:16;28.30;58.20
18658;DHT22;9458;50.942;5.074;2023-06-14T10:15:47;28.30;59.20
18658;DHT22;9458;50.942;5.074;2023-06-14T10:18:19;28.40;58.90
18658;DHT22;9458;50.942;5.074;2023-06-14T10:20:52;28.40;59.00
18658;DHT22;9458;50.942;5.074;2023-06-14T10:23:22;28.40;59.60
18658;DHT22;9458;50.942;5.074;2023-06-14T10:25:50;28.20;60.10
18658;DHT22;9458;50.942;5.074;2023-06-14T10:28:17;28.30;62.20
18658;DHT22;9458;50.942;5.074;2023-06-14T10:33:32;27.90;62.30
18658;DHT22;9458;50.942;5.074;2023-06-14T10:38:41;28.30;60.40
18658;DHT22;9458;50.942;5.074;2023-06-14T10:41:08;28.00;58.30
18658;DHT22;9458;50.942;5.074;2023-06-14T10:43:36;28.20;60.20
18658;DHT22;9458;50.942;5.074;2023-06-14T10:46:15;27.80;58.50
18658;DHT22;9458;50.942;5.074;2023-06-14T10:48:44;27.70;59.70
18658;DHT22;9458;50.942;5.074;2023-06-14T10:51:17;28.00;59.60
18658;DHT22;9458;50.942;5.074;2023-06-14T10:53:46;27.80;58.80
18658;DHT22;9458;50.942;5.074;2023-06-14T10:56:23;27.70;59.30
18658;DHT22;9458;50.942;5.074;2023-06-14T10:58:51;27.70;61.00
18658;DHT22;9458;50.942;5.074;2023-06-14T11:01:19;27.80;60.20
18658;DHT22;9458;50.942;5.074;2023-06-14T11:03:51;27.60;61.30
18658;DHT22;9458;50.942;5.074;2023-06-14T11:06:21;27.80;59.80
18658;DHT22;9458;50.942;5.074;2023-06-14T11:11:33;27.80;59.40
18658;DHT22;9458;50.942;5.074;2023-06-14T11:14:01;27.50;59.80
18658;DHT22;9458;50.942;5.074;2023-06-14T11:16:28;27.40;59.10
18658;DHT22;9458;50.942;5.074;2023-06-14T11:18:59;27.50;58.80
18658;DHT22;9458;50.942;5.074;2023-06-14T11:21:26;27.80;60.00
18658;DHT22;9458;50.942;5.074;2023-06-14T11:23:56;27.40;57.80
18658;DHT22;9458;50.942;5.074;2023-06-14T11:26:26;27.50;59.80
18658;DHT22;9458;50.942;5.074;2023-06-14T11:28:56;27.60;58.40
18658;DHT22;9458;50.942;5.074;2023-06-14T11:31:24;27.30;58.50
18658;DHT22;9458;50.942;5.074;2023-06-14T11:33:50;27.50;59.20
18658;DHT22;9458;50.942;5.074;2023-06-14T11:36:19;27.30;58.90
18658;DHT22;9458;50.942;5.074;2023-06-14T11:38:46;27.10;57.60
18658;DHT22;9458;50.942;5.074;2023-06-14T11:41:13;27.20;58.80
18658;DHT22;9458;50.942;5.074;2023-06-14T11:43:40;27.50;59.50
18658;DHT22;9458;50.942;5.074;2023-06-14T11:46:12;27.60;58.40
18658;DHT22;9458;50.942;5.074;2023-06-14T11:48:40;27.40;58.20
18658;DHT22;9458;50.942;5.074;2023-06-14T11:51:07;27.40;57.70
18658;DHT22;9458;50.942;5.074;2023-06-14T11:53:35;27.40;57.80
18658;DHT22;9458;50.942;5.074;2023-06-14T11:56:02;27.30;57.10
18658;DHT22;9458;50.942;5.074;2023-06-14T11:58:30;27.30;57.10
18658;DHT22;9458;50.942;5.074;2023-06-14T12:00:56;27.30;57.80
18658;DHT22;9458;50.942;5.074;2023-06-14T12:03:23;27.40;55.50
18658;DHT22;9458;50.942;5.074;2023-06-14T12:06:01;27.40;54.90
18658;DHT22;9458;50.942;5.074;2023-06-14T12:08:32;27.50;54.90
18658;DHT22;9458;50.942;5.074;2023-06-14T12:11:06;27.50;56.90
18658;DHT22;9458;50.942;5.074;2023-06-14T12:13:34;27.60;55.90
18658;DHT22;9458;50.942;5.074;2023-06-14T12:16:01;27.50;57.00
18658;DHT22;9458;50.942;5.074;2023-06-14T12:18:31;27.50;54.60
18658;DHT22;9458;50.942;5.074;2023-06-14T12:20:59;27.50;55.40
18658;DHT22;9458;50.942;5.074;2023-06-14T12:23:38;27.40;55.40
18658;DHT22;9458;50.942;5.074;2023-06-14T12:26:06;27.30;55.80
18658;DHT22;9458;50.942;5.074;2023-06-14T12:28:33;27.30;56.60
18658;DHT22;9458;50.942;5.074;2023-06-14T12:31:00;27.20;55.70
18658;DHT22;9458;50.942;5.074;2023-06-14T12:33:27;27.00;57.00
18658;DHT22;9458;50.942;5.074;2023-06-14T12:35:54;27.10;57.10
18658;DHT22;9458;50.942;5.074;2023-06-14T12:38:22;27.20;56.70
18658;DHT22;9458;50.942;5.074;2023-06-14T12:40:49;27.40;55.60
18658;DHT22;9458;50.942;5.074;2023-06-14T12:43:18;27.50;56.20
18658;DHT22;9458;50.942;5.074;2023-06-14T12:45:44;27.60;56.50
18658;DHT22;9458;50.942;5.074;2023-06-14T12:48:11;27.50;56.40
18658;DHT22;9458;50.942;5.074;2023-06-14T12:50:38;27.20;55.90
18658;DHT22;9458;50.942;5.074;2023-06-14T12:53:05;27.30;56.20
18658;DHT22;9458;50.942;5.074;2023-06-14T12:55:32;27.10;56.40
18658;DHT22;9458;50.942;5.074;2023-06-14T12:57:59;27.10;57.50
18658;DHT22;9458;50.942;5.074;2023-06-14T13:00:28;26.90;57.40
18658;DHT22;9458;50.942;5.074;2023-06-14T13:02:56;26.90;55.60
18658;DHT22;9458;50.942;5.074;2023-06-14T13:05:23;27.00;57.40
18658;DHT22;9458;50.942;5.074;2023-06-14T13:07:50;27.00;57.60
18658;DHT22;9458;50.942;5.074;2023-06-14T13:10:17;27.00;57.30
18658;DHT22;9458;50.942;5.074;2023-06-14T13:12:44;27.00;58.60
18658;DHT22;9458;50.942;5.074;2023-06-14T13:15:11;27.00;58.00
18658;DHT22;9458;50.942;5.074;2023-06-14T13:17:39;26.70;58.40
18658;DHT22;9458;50.942;5.074;2023-06-14T13:20:07;26.90;58.90
18658;DHT22;9458;50.942;5.074;2023-06-14T13:22:35;26.90;57.80
18658;DHT22;9458;50.942;5.074;2023-06-14T13:25:02;26.90;58.20
18658;DHT22;9458;50.942;5.074;2023-06-14T13:27:29;27.00;58.00
18658;DHT22;9458;50.942;5.074;2023-06-14T13:29:56;27.10;58.40
18658;DHT22;9458;50.942;5.074;2023-06-14T13:32:23;27.20;57.70
18658;DHT22;9458;50.942;5.074;2023-06-14T13:34:51;27.10;57.50
18658;DHT22;9458;50.942;5.074;2023-06-14T13:37:18;27.10;57.50
18658;DHT22;9458;50.942;5.074;2023-06-14T13:39:45;27.20;58.10
18658;DHT22;9458;50.942;5.074;2023-06-14T13:42:12;27.20;57.10
18658;DHT22;9458;50.942;5.074;2023-06-14T13:44:39;27.20;57.30
18658;DHT22;9458;50.942;5.074;2023-06-14T13:47:06;27.10;56.80
18658;DHT22;9458;50.942;5.074;2023-06-14T13:49:33;27.00;58.10
18658;DHT22;9458;50.942;5.074;2023-06-14T13:52:03;26.80;57.60
18658;DHT22;9458;50.942;5.074;2023-06-14T13:54:30;26.70;58.90
18658;DHT22;9458;50.942;5.074;2023-06-14T13:56:57;26.80;59.90
18658;DHT22;9458;50.942;5.074;2023-06-14T13:59:23;26.90;60.40
18658;DHT22;9458;50.942;5.074;2023-06-14T14:01:50;26.80;58.90
18658;DHT22;9458;50.942;5.074;2023-06-14T14:04:17;26.70;59.50
18658;DHT22;9458;50.942;5.074;2023-06-14T14:06:44;26.80;59.70
18658;DHT22;9458;50.942;5.074;2023-06-14T14:09:13;26.70;60.40
18658;DHT22;9458;50.942;5.074;2023-06-14T14:11:40;26.60;59.20
18658;DHT22;9458;50.942;5.074;2023-06-14T14:14:09;26.70;61.70
18658;DHT22;9458;50.942;5.074;2023-06-14T14:16:36;26.80;60.60
18658;DHT22;9458;50.942;5.074;2023-06-14T14:19:04;26.90;60.60
18658;DHT22;9458;50.942;5.074;2023-06-14T14:21:31;27.00;59.90
18658;DHT22;9458;50.942;5.074;2023-06-14T14:23:58;27.00;61.20
18658;DHT22;9458;50.942;5.074;2023-06-14T14:26:27;27.00;60.30
18658;DHT22;9458;50.942;5.074;2023-06-14T14:28:54;26.80;59.70
18658;DHT22;9458;50.942;5.074;2023-06-14T14:31:21;26.70;60.30
18658;DHT22;9458;50.942;5.074;2023-06-14T14:33:48;26.60;59.90
18658;DHT22;9458;50.942;5.074;2023-06-14T14:36:14;26.60;59.00
18658;DHT22;9458;50.942;5.074;2023-06-14T14:38:41;26.40;60.70
18658;DHT22;9458;50.942;5.074;2023-06-14T14:41:08;26.40;60.90
18658;DHT22;9458;50.942;5.074;2023-06-14T14:43:36;26.40;59.60
18658;DHT22;9458;50.942;5.074;2023-06-14T14:46:03;26.40;60.60
18658;DHT22;9458;50.942;5.074;2023-06-14T14:48:30;26.50;60.30
18658;DHT22;9458;50.942;5.074;2023-06-14T14:50:57;26.50;59.60
18658;DHT22;9458;50.942;5.074;2023-06-14T14:53:24;26.50;60.80
18658;DHT22;9458;50.942;5.074;2023-06-14T14:55:51;26.30;59.10
18658;DHT22;9458;50.942;5.074;2023-06-14T14:58:18;26.30;58.10
18658;DHT22;9458;50.942;5.074;2023-06-14T15:00:47;26.40;59.10
18658;DHT22;9458;50.942;5.074;2023-06-14T15:03:14;26.50;59.70
18658;DHT22;9458;50.942;5.074;2023-06-14T15:05:41;26.40;59.00
18658;DHT22;9458;50.942;5.074;2023-06-14T15:08:08;26.30;57.00
18658;DHT22;9458;50.942;5.074;2023-06-14T15:10:37;26.30;58.30
18658;DHT22;9458;50.942;5.074;2023-06-14T15:13:05;26.30;57.90
18658;DHT22;9458;50.942;5.074;2023-06-14T15:15:33;26.30;57.80
18658;DHT22;9458;50.942;5.074;2023-06-14T15:18:01;26.30;58.30
18658;DHT22;9458;50.942;5.074;2023-06-14T15:20:29;26.30;57.60
18658;DHT22;9458;50.942;5.074;2023-06-14T15:22:56;26.30;58.50
18658;DHT22;9458;50.942;5.074;2023-06-14T15:25:25;26.30;58.30
18658;DHT22;9458;50.942;5.074;2023-06-14T15:27:52;26.20;59.00
18658;DHT22;9458;50.942;5.074;2023-06-14T15:30:19;26.20;58.40
18658;DHT22;9458;50.942;5.074;2023-06-14T15:32:45;26.20;58.40
18658;DHT22;9458;50.942;5.074;2023-06-14T15:35:14;26.10;58.00
18658;DHT22;9458;50.942;5.074;2023-06-14T15:37:41;26.10;58.00
18658;DHT22;9458;50.942;5.074;2023-06-14T15:40:09;26.10;58.70
18658;DHT22;9458;50.942;5.074;2023-06-14T15:42:36;26.20;60.70
18658;DHT22;9458;50.942;5.074;2023-06-14T15:45:03;26.10;60.60
18658;DHT22;9458;50.942;5.074;2023-06-14T15:47:30;26.20;61.70
18658;DHT22;9458;50.942;5.074;2023-06-14T15:49:57;26.20;59.80
18658;DHT22;9458;50.942;5.074;2023-06-14T15:52:25;26.20;60.60
18658;DHT22;9458;50.942;5.074;2023-06-14T15:54:53;26.00;58.40
18658;DHT22;9458;50.942;5.074;2023-06-14T15:57:20;26.00;59.30
18658;DHT22;9458;50.942;5.074;2023-06-14T15:59:47;26.00;58.90